sensor_id;sensor_type;location;lat;lon;timestamp;temperature;humidity
18339;DHT22;9295;44.484;11.240;2022-07-31T00:01:32;23.60;99.90
18339;DHT22;9295;44.484;11.240;2022-07-31T00:04:02;23.60;99.90
18339;DHT22;9295;44.484;11.240;2022-07-31T00:06:31;23.50;99.90
18339;DHT22;9295;44.484;11.240;2022-07-31T00:09:00;23.50;99.90
18339;DHT22;9295;44.484;11.240;2022-07-31T00:11:33;23.50;99.90
18339;DHT22;9295;44.484;11.240;2022-07-31T00:14:02;23.50;99.90
18339;DHT22;9295;44.484;11.240;2022-07-31T00:16:30;23.40;99.90
18339;DHT22;9295;44.484;11.240;2022-07-31T00:18:59;23.40;99.90
18339;DHT22;9295;44.484;11.240;2022-07-31T00:21:30;23.30;99.90
18339;DHT22;9295;44.484;11.240;2022-07-31T00:23:58;23.30;99.90
18339;DHT22;9295;44.484;11.240;2022-07-31T00:26:27;23.20;99.90
18339;DHT22;9295;44.484;11.240;2022-07-31T00:28:57;23.20;99.90
18339;DHT22;9295;44.484;11.240;2022-07-31T00:31:25;23.20;99.90
18339;DHT22;9295;44.484;11.240;2022-07-31T00:33:54;23.20;99.90
18339;DHT22;9295;44.484;11.240;2022-07-31T00:36:22;23.30;99.90
18339;DHT22;9295;44.484;11.240;2022-07-31T00:38:58;23.30;99.90
18339;DHT22;9295;44.484;11.240;2022-07-31T00:41:37;23.30;99.90
18339;DHT22;9295;44.484;11.240;2022-07-31T00:44:07;23.30;99.90
18339;DHT22;9295;44.484;11.240;2022-07-31T00:46:38;23.30;99.90
18339;DHT22;9295;44.484;11.240;2022-07-31T00:49:08;23.30;99.90
18339;DHT22;9295;44.484;11.240;2022-07-31T00:51:38;23.20;99.90
18339;DHT22;9295;44.484;11.240;2022-07-31T00:54:07;23.20;99.90
18339;DHT22;9295;44.484;11.240;2022-07-31T00:56:44;23.20;99.90
18339;DHT22;9295;44.484;11.240;2022-07-31T00:59:14;23.10;99.90
18339;DHT22;9295;44.484;11.240;2022-07-31T01:01:51;23.10;99.90
18339;DHT22;9295;44.484;11.240;2022-07-31T01:04:19;23.10;99.90
18339;DHT22;9295;44.484;11.240;2022-07-31T01:06:51;23.10;99.90
18339;DHT22;9295;44.484;11.240;2022-07-31T01:09:20;23.10;99.90
18339;DHT22;9295;44.484;11.240;2022-07-31T01:11:56;22.90;99.90
18339;DHT22;9295;44.484;11.240;2022-07-31T01:14:32;22.90;99.90
18339;DHT22;9295;44.484;11.240;2022-07-31T01:17:04;22.80;99.90
18339;DHT22;9295;44.484;11.240;2022-07-31T01:19:37;22.70;99.90
18339;DHT22;9295;44.484;11.240;2022-07-31T01:22:28;22.60;99.90
18339;DHT22;9295;44.484;11.240;2022-07-31T01:25:06;22.40;99.90
18339;DHT22;9295;44.484;11.240;2022-07-31T01:27:51;22.40;99.90
18339;DHT22;9295;44.484;11.240;2022-07-31T01:30:23;22.30;99.90
18339;DHT22;9295;44.484;11.240;2022-07-31T01:33:03;22.30;99.90
18339;DHT22;9295;44.484;11.240;2022-07-31T01:35:39;22.30;99.90
18339;DHT22;9295;44.484;11.240;2022-07-31T01:38:13;22.30;99.90
18339;DHT22;9295;44.484;11.240;2022-07-31T01:40:45;22.30;99.90
18339;DHT22;9295;44.484;11.240;2022-07-31T01:43:18;22.30;99.90
18339;DHT22;9295;44.484;11.240;2022-07-31T01:45:52;22.30;99.90
18339;DHT22;9295;44.484;11.240;2022-07-31T01:48:21;22.40;99.90
18339;DHT22;9295;44.484;11.240;2022-07-31T01:50:52;22.40;99.90
18339;DHT22;9295;44.484;11.240;2022-07-31T01:53:23;22.40;99.90
18339;DHT22;9295;44.484;11.240;2022-07-31T01:55:54;22.40;99.90
18339;DHT22;9295;44.484;11.240;2022-07-31T01:58:35;22.40;99.90
18339;DHT22;9295;44.484;11.240;2022-07-31T02:01:30;22.40;99.90
18339;DHT22;9295;44.484;11.240;2022-07-31T02:04:01;22.50;99.90
18339;DHT22;9295;44.484;11.240;2022-07-31T02:06:31;22.40;99.90
18339;DHT22;9295;44.484;11.240;2022-07-31T02:09:01;22.40;99.90
18339;DHT22;9295;44.484;11.240;2022-07-31T02:11:30;22.30;99.90
18339;DHT22;9295;44.484;11.240;2022-07-31T02:14:12;22.30;99.90
18339;DHT22;9295;44.484;11.240;2022-07-31T02:16:43;22.20;99.90
18339;DHT22;9295;44.484;11.240;2022-07-31T02:19:21;22.20;99.90
18339;DHT22;9295;44.484;11.240;2022-07-31T02:21:52;22.00;99.90
18339;DHT22;9295;44.484;11.240;2022-07-31T02:24:22;22.00;99.90
18339;DHT22;9295;44.484;11.240;2022-07-31T02:26:51;21.90;99.90
18339;DHT22;9295;44.484;11.240;2022-07-31T02:29:20;21.90;99.90
18339;DHT22;9295;44.484;11.240;2022-07-31T02:31:52;21.80;99.90
18339;DHT22;9295;44.484;11.240;2022-07-31T02:34:38;21.70;99.90
18339;DHT22;9295;44.484;11.240;2022-07-31T02:37:07;21.60;99.90
18339;DHT22;9295;44.484;11.240;2022-07-31T02:39:37;21.60;99.90
18339;DHT22;9295;44.484;11.240;2022-07-31T02:42:06;21.60;99.90
18339;DHT22;9295;44.484;11.240;2022-07-31T02:44:36;21.60;99.90
18339;DHT22;9295;44.484;11.240;2022-07-31T02:47:07;21.60;99.90
18339;DHT22;9295;44.484;11.240;2022-07-31T02:49:36;21.60;99.90
18339;DHT22;9295;44.484;11.240;2022-07-31T02:52:05;21.70;99.90
18339;DHT22;9295;44.484;11.240;2022-07-31T02:54:37;21.70;99.90
18339;DHT22;9295;44.484;11.240;2022-07-31T02:57:07;21.70;99.90
18339;DHT22;9295;44.484;11.240;2022-07-31T02:59:38;21.70;99.90
18339;DHT22;9295;44.484;11.240;2022-07-31T03:02:12;21.80;99.90
18339;DHT22;9295;44.484;11.240;2022-07-31T03:04:43;21.80;99.90
18339;DHT22;9295;44.484;11.240;2022-07-31T03:07:12;21.80;99.90
18339;DHT22;9295;44.484;11.240;2022-07-31T03:09:44;21.70;99.90
18339;DHT22;9295;44.484;11.240;2022-07-31T03:12:39;21.70;99.90
18339;DHT22;9295;44.484;11.240;2022-07-31T03:15:10;21.70;99.90
18339;DHT22;9295;44.484;11.240;2022-07-31T03:17:42;21.70;99.90
18339;DHT22;9295;44.484;11.240;2022-07-31T03:20:17;21.70;99.90
18339;DHT22;9295;44.484;11.240;2022-07-31T03:22:46;21.70;99.90
18339;DHT22;9295;44.484;11.240;2022-07-31T03:25:16;21.60;99.90
18339;DHT22;9295;44.484;11.240;2022-07-31T03:27:49;21.60;99.90
18339;DHT22;9295;44.484;11.240;2022-07-31T03:30:23;21.60;99.90
18339;DHT22;9295;44.484;11.240;2022-07-31T03:32:56;21.60;99.90
18339;DHT22;9295;44.484;11.240;2022-07-31T03:35:29;21.60;99.90
18339;DHT22;9295;44.484;11.240;2022-07-31T03:38:06;21.60;99.90
18339;DHT22;9295;44.484;11.240;2022-07-31T03:40:55;21.60;99.90
18339;DHT22;9295;44.484;11.240;2022-07-31T03:43:23;21.50;99.90
18339;DHT22;9295;44.484;11.240;2022-07-31T03:45:52;21.50;99.90
18339;DHT22;9295;44.484;11.240;2022-07-31T03:48:22;21.50;99.90
18339;DHT22;9295;44.484;11.240;2022-07-31T03:50:55;21.60;99.90
18339;DHT22;9295;44.484;11.240;2022-07-31T03:53:25;21.60;99.90
18339;DHT22;9295;44.484;11.240;2022-07-31T03:55:54;21.60;99.90
18339;DHT22;9295;44.484;11.240;2022-07-31T03:58:26;21.50;99.90
18339;DHT22;9295;44.484;11.240;2022-07-31T04:00:57;21.60;99.90
18339;DHT22;9295;44.484;11.240;2022-07-31T04:03:31;21.60;99.90
18339;DHT22;9295;44.484;11.240;2022-07-31T04:06:18;21.60;99.90
18339;DHT22;9295;44.484;11.240;2022-07-31T04:08:46;21.60;99.90
18339;DHT22;9295;44.484;11.240;2022-07-31T04:11:15;21.50;99.90
18339;DHT22;9295;44.484;11.240;2022-07-31T04:13:44;21.60;99.90
18339;DHT22;9295;44.484;11.240;2022-07-31T04:16:12;21.50;99.90
18339;DHT22;9295;44.484;11.240;2022-07-31T04:18:42;21.50;99.90
18339;DHT22;9295;44.484;11.240;2022-07-31T04:21:17;21.50;99.90
18339;DHT22;9295;44.484;11.240;2022-07-31T04:23:46;21.50;99.90
18339;DHT22;9295;44.484;11.240;2022-07-31T04:26:16;21.50;99.90
18339;DHT22;9295;44.484;11.240;2022-07-31T04:28:59;21.50;99.90
18339;DHT22;9295;44.484;11.240;2022-07-31T04:31:28;21.50;99.90
18339;DHT22;9295;44.484;11.240;2022-07-31T04:33:59;21.50;99.90
18339;DHT22;9295;44.484;11.240;2022-07-31T04:36:29;21.50;99.90
18339;DHT22;9295;44.484;11.240;2022-07-31T04:39:00;21.60;99.90
18339;DHT22;9295;44.484;11.240;2022-07-31T04:41:31;21.60;99.90
18339;DHT22;9295;44.484;11.240;2022-07-31T04:44:00;21.50;99.90
18339;DHT22;9295;44.484;11.240;2022-07-31T04:46:43;21.60;99.90
18339;DHT22;9295;44.484;11.240;2022-07-31T04:49:15;21.60;99.90
18339;DHT22;9295;44.484;11.240;2022-07-31T04:51:47;21.60;99.90
18339;DHT22;9295;44.484;11.240;2022-07-31T04:54:16;21.60;99.90
18339;DHT22;9295;44.484;11.240;2022-07-31T04:56:45;21.60;99.90
18339;DHT22;9295;44.484;11.240;2022-07-31T04:59:17;21.50;99.90
18339;DHT22;9295;44.484;11.240;2022-07-31T05:01:52;21.50;99.90
18339;DHT22;9295;44.484;11.240;2022-07-31T05:04:24;21.50;99.90
18339;DHT22;9295;44.484;11.240;2022-07-31T05:06:54;21.60;99.90
18339;DHT22;9295;44.484;11.240;2022-07-31T05:09:23;21.80;99.90
18339;DHT22;9295;44.484;11.240;2022-07-31T05:11:59;21.90;99.90
18339;DHT22;9295;44.484;11.240;2022-07-31T05:14:29;22.10;99.90
18339;DHT22;9295;44.484;11.240;2022-07-31T05:16:58;22.40;99.90
18339;DHT22;9295;44.484;11.240;2022-07-31T05:19:43;22.70;99.90
18339;DHT22;9295;44.484;11.240;2022-07-31T05:22:33;23.30;99.90
18339;DHT22;9295;44.484;11.240;2022-07-31T05:25:24;23.80;99.90
18339;DHT22;9295;44.484;11.240;2022-07-31T05:27:53;24.50;99.90
18339;DHT22;9295;44.484;11.240;2022-07-31T05:30:22;25.00;99.90
18339;DHT22;9295;44.484;11.240;2022-07-31T05:32:56;25.50;99.90
18339;DHT22;9295;44.484;11.240;2022-07-31T05:35:27;26.00;99.90
18339;DHT22;9295;44.484;11.240;2022-07-31T05:37:55;26.00;99.90
18339;DHT22;9295;44.484;11.240;2022-07-31T05:40:44;25.90;99.90
18339;DHT22;9295;44.484;11.240;2022-07-31T05:43:33;25.80;99.90
18339;DHT22;9295;44.484;11.240;2022-07-31T05:46:22;25.70;99.90
18339;DHT22;9295;44.484;11.240;2022-07-31T05:48:51;25.70;99.90
18339;DHT22;9295;44.484;11.240;2022-07-31T05:51:23;25.60;99.90
18339;DHT22;9295;44.484;11.240;2022-07-31T05:53:52;25.70;99.90
18339;DHT22;9295;44.484;11.240;2022-07-31T05:56:39;25.70;99.90
18339;DHT22;9295;44.484;11.240;2022-07-31T05:59:10;25.90;99.90
18339;DHT22;9295;44.484;11.240;2022-07-31T06:01:39;25.90;99.90
18339;DHT22;9295;44.484;11.240;2022-07-31T06:04:08;26.00;99.90
18339;DHT22;9295;44.484;11.240;2022-07-31T06:06:45;26.00;99.90
18339;DHT22;9295;44.484;11.240;2022-07-31T06:09:13;26.20;99.90
18339;DHT22;9295;44.484;11.240;2022-07-31T06:11:44;26.30;99.90
18339;DHT22;9295;44.484;11.240;2022-07-31T06:14:13;26.50;99.90
18339;DHT22;9295;44.484;11.240;2022-07-31T06:17:11;26.70;99.90
18339;DHT22;9295;44.484;11.240;2022-07-31T06:19:39;26.90;99.90
18339;DHT22;9295;44.484;11.240;2022-07-31T06:22:14;27.00;99.90
18339;DHT22;9295;44.484;11.240;2022-07-31T06:24:43;27.20;99.90
18339;DHT22;9295;44.484;11.240;2022-07-31T06:27:12;27.30;99.90
18339;DHT22;9295;44.484;11.240;2022-07-31T06:30:03;27.40;99.90
18339;DHT22;9295;44.484;11.240;2022-07-31T06:32:32;27.60;99.90
18339;DHT22;9295;44.484;11.240;2022-07-31T06:35:01;27.80;99.90
18339;DHT22;9295;44.484;11.240;2022-07-31T06:37:37;27.90;99.90
18339;DHT22;9295;44.484;11.240;2022-07-31T06:40:10;28.00;99.90
18339;DHT22;9295;44.484;11.240;2022-07-31T06:42:58;28.20;99.90
18339;DHT22;9295;44.484;11.240;2022-07-31T06:45:52;28.30;99.90
18339;DHT22;9295;44.484;11.240;2022-07-31T06:48:49;28.40;99.90
18339;DHT22;9295;44.484;11.240;2022-07-31T06:51:21;28.60;99.90
18339;DHT22;9295;44.484;11.240;2022-07-31T06:54:00;28.70;99.90
18339;DHT22;9295;44.484;11.240;2022-07-31T06:56:30;28.80;99.90
18339;DHT22;9295;44.484;11.240;2022-07-31T06:58:59;28.90;99.90
18339;DHT22;9295;44.484;11.240;2022-07-31T07:01:28;29.10;99.90
18339;DHT22;9295;44.484;11.240;2022-07-31T07:03:57;29.40;99.90
18339;DHT22;9295;44.484;11.240;2022-07-31T07:06:26;29.50;99.90
18339;DHT22;9295;44.484;11.240;2022-07-31T07:08:55;29.70;99.90
18339;DHT22;9295;44.484;11.240;2022-07-31T07:11:26;29.80;99.50
18339;DHT22;9295;44.484;11.240;2022-07-31T07:13:54;29.90;99.20
18339;DHT22;9295;44.484;11.240;2022-07-31T07:16:23;30.00;97.70
18339;DHT22;9295;44.484;11.240;2022-07-31T07:18:52;30.00;97.70
18339;DHT22;9295;44.484;11.240;2022-07-31T07:21:22;30.10;97.00
18339;DHT22;9295;44.484;11.240;2022-07-31T07:23:53;30.20;96.10
18339;DHT22;9295;44.484;11.240;2022-07-31T07:26:46;30.10;95.60
18339;DHT22;9295;44.484;11.240;2022-07-31T07:29:15;30.20;96.00
18339;DHT22;9295;44.484;11.240;2022-07-31T07:31:47;30.30;95.50
18339;DHT22;9295;44.484;11.240;2022-07-31T07:34:16;30.50;95.50
18339;DHT22;9295;44.484;11.240;2022-07-31T07:36:46;30.60;95.00
18339;DHT22;9295;44.484;11.240;2022-07-31T07:39:22;30.70;94.60
18339;DHT22;9295;44.484;11.240;2022-07-31T07:41:52;30.80;93.80
18339;DHT22;9295;44.484;11.240;2022-07-31T07:44:21;30.80;93.60
18339;DHT22;9295;44.484;11.240;2022-07-31T07:46:49;31.00;94.00
18339;DHT22;9295;44.484;11.240;2022-07-31T07:49:19;31.10;93.50
18339;DHT22;9295;44.484;11.240;2022-07-31T07:51:56;31.20;93.00
18339;DHT22;9295;44.484;11.240;2022-07-31T07:54:38;31.30;92.60
18339;DHT22;9295;44.484;11.240;2022-07-31T07:57:13;31.30;92.30
18339;DHT22;9295;44.484;11.240;2022-07-31T08:00:02;31.30;91.50
18339;DHT22;9295;44.484;11.240;2022-07-31T08:02:57;31.40;91.90
18339;DHT22;9295;44.484;11.240;2022-07-31T08:05:45;31.40;91.60
18339;DHT22;9295;44.484;11.240;2022-07-31T08:08:14;31.50;91.20
18339;DHT22;9295;44.484;11.240;2022-07-31T08:11:03;31.40;91.50
18339;DHT22;9295;44.484;11.240;2022-07-31T08:13:46;31.60;91.20
18339;DHT22;9295;44.484;11.240;2022-07-31T08:16:23;31.70;91.20
18339;DHT22;9295;44.484;11.240;2022-07-31T08:18:55;31.80;90.70
18339;DHT22;9295;44.484;11.240;2022-07-31T08:21:25;31.90;90.90
18339;DHT22;9295;44.484;11.240;2022-07-31T08:23:54;32.00;90.50
18339;DHT22;9295;44.484;11.240;2022-07-31T08:26:23;32.00;90.50
18339;DHT22;9295;44.484;11.240;2022-07-31T08:29:02;32.10;89.30
18339;DHT22;9295;44.484;11.240;2022-07-31T08:31:37;32.20;88.40
18339;DHT22;9295;44.484;11.240;2022-07-31T08:34:39;32.20;89.70
18339;DHT22;9295;44.484;11.240;2022-07-31T08:37:08;32.30;87.90
18339;DHT22;9295;44.484;11.240;2022-07-31T08:39:57;32.20;87.40
18339;DHT22;9295;44.484;11.240;2022-07-31T08:42:26;32.20;88.00
18339;DHT22;9295;44.484;11.240;2022-07-31T08:44:57;32.40;88.00
18339;DHT22;9295;44.484;11.240;2022-07-31T08:47:31;32.40;86.70
18339;DHT22;9295;44.484;11.240;2022-07-31T08:50:07;32.30;86.90
18339;DHT22;9295;44.484;11.240;2022-07-31T08:52:42;32.50;87.10
18339;DHT22;9295;44.484;11.240;2022-07-31T08:55:22;32.60;86.60
18339;DHT22;9295;44.484;11.240;2022-07-31T08:58:11;32.60;85.70
18339;DHT22;9295;44.484;11.240;2022-07-31T09:00:41;32.50;85.50
18339;DHT22;9295;44.484;11.240;2022-07-31T09:03:10;32.50;85.80
18339;DHT22;9295;44.484;11.240;2022-07-31T09:05:50;32.50;86.60
18339;DHT22;9295;44.484;11.240;2022-07-31T09:08:19;32.60;85.60
18339;DHT22;9295;44.484;11.240;2022-07-31T09:11:00;32.50;85.20
18339;DHT22;9295;44.484;11.240;2022-07-31T09:13:36;32.50;85.10
18339;DHT22;9295;44.484;11.240;2022-07-31T09:16:24;32.40;84.80
18339;DHT22;9295;44.484;11.240;2022-07-31T09:18:58;32.40;85.00
18339;DHT22;9295;44.484;11.240;2022-07-31T09:21:37;32.40;85.60
18339;DHT22;9295;44.484;11.240;2022-07-31T09:24:07;32.50;85.50
18339;DHT22;9295;44.484;11.240;2022-07-31T09:26:37;32.60;86.40
18339;DHT22;9295;44.484;11.240;2022-07-31T09:29:08;32.80;85.90
18339;DHT22;9295;44.484;11.240;2022-07-31T09:31:43;32.90;85.60
18339;DHT22;9295;44.484;11.240;2022-07-31T09:34:36;32.90;84.90
18339;DHT22;9295;44.484;11.240;2022-07-31T09:37:11;32.90;84.50
18339;DHT22;9295;44.484;11.240;2022-07-31T09:40:18;33.10;84.50
18339;DHT22;9295;44.484;11.240;2022-07-31T09:43:26;32.90;84.70
18339;DHT22;9295;44.484;11.240;2022-07-31T09:45:59;33.10;83.70
18339;DHT22;9295;44.484;11.240;2022-07-31T09:48:30;33.10;83.70
18339;DHT22;9295;44.484;11.240;2022-07-31T09:51:03;33.10;82.60
18339;DHT22;9295;44.484;11.240;2022-07-31T09:53:40;33.10;82.40
18339;DHT22;9295;44.484;11.240;2022-07-31T09:56:30;33.10;82.70
18339;DHT22;9295;44.484;11.240;2022-07-31T09:59:00;33.10;83.30
18339;DHT22;9295;44.484;11.240;2022-07-31T10:01:30;33.30;82.70
18339;DHT22;9295;44.484;11.240;2022-07-31T10:04:02;33.10;79.80
18339;DHT22;9295;44.484;11.240;2022-07-31T10:06:35;32.90;80.70
18339;DHT22;9295;44.484;11.240;2022-07-31T10:09:06;33.00;80.90
18339;DHT22;9295;44.484;11.240;2022-07-31T10:11:54;33.10;80.60
18339;DHT22;9295;44.484;11.240;2022-07-31T10:14:27;32.90;80.00
18339;DHT22;9295;44.484;11.240;2022-07-31T10:17:01;32.80;81.00
18339;DHT22;9295;44.484;11.240;2022-07-31T10:19:54;32.90;81.10
18339;DHT22;9295;44.484;11.240;2022-07-31T10:23:05;33.00;80.20
18339;DHT22;9295;44.484;11.240;2022-07-31T10:25:39;33.10;80.70
18339;DHT22;9295;44.484;11.240;2022-07-31T10:28:21;33.20;79.80
18339;DHT22;9295;44.484;11.240;2022-07-31T10:30:50;33.20;79.40
18339;DHT22;9295;44.484;11.240;2022-07-31T10:33:22;33.20;78.10
18339;DHT22;9295;44.484;11.240;2022-07-31T10:36:34;33.10;76.90
18339;DHT22;9295;44.484;11.240;2022-07-31T10:39:29;33.10;78.10
18339;DHT22;9295;44.484;11.240;2022-07-31T10:45:02;33.20;77.50
18339;DHT22;9295;44.484;11.240;2022-07-31T10:47:51;33.20;77.40
18339;DHT22;9295;44.484;11.240;2022-07-31T10:50:47;33.20;76.70
18339;DHT22;9295;44.484;11.240;2022-07-31T10:53:22;33.30;76.50
18339;DHT22;9295;44.484;11.240;2022-07-31T10:56:23;33.30;75.60
18339;DHT22;9295;44.484;11.240;2022-07-31T10:59:11;33.20;75.10
18339;DHT22;9295;44.484;11.240;2022-07-31T11:02:01;33.10;75.00
18339;DHT22;9295;44.484;11.240;2022-07-31T11:04:53;32.80;73.40
18339;DHT22;9295;44.484;11.240;2022-07-31T11:07:34;32.70;74.00
18339;DHT22;9295;44.484;11.240;2022-07-31T11:10:25;32.70;73.20
18339;DHT22;9295;44.484;11.240;2022-07-31T11:13:29;32.80;73.90
18339;DHT22;9295;44.484;11.240;2022-07-31T11:16:32;32.80;74.20
18339;DHT22;9295;44.484;11.240;2022-07-31T11:19:21;32.70;71.80
18339;DHT22;9295;44.484;11.240;2022-07-31T11:21:49;32.50;72.30
18339;DHT22;9295;44.484;11.240;2022-07-31T11:24:22;32.70;72.40
18339;DHT22;9295;44.484;11.240;2022-07-31T11:26:53;32.80;72.70
18339;DHT22;9295;44.484;11.240;2022-07-31T11:29:26;32.90;71.70
18339;DHT22;9295;44.484;11.240;2022-07-31T11:32:17;33.10;70.10
18339;DHT22;9295;44.484;11.240;2022-07-31T11:34:53;33.10;69.10
18339;DHT22;9295;44.484;11.240;2022-07-31T11:37:25;33.10;69.40
18339;DHT22;9295;44.484;11.240;2022-07-31T11:40:17;33.10;68.50
18339;DHT22;9295;44.484;11.240;2022-07-31T11:42:55;33.00;67.30
18339;DHT22;9295;44.484;11.240;2022-07-31T11:45:45;33.00;66.80
18339;DHT22;9295;44.484;11.240;2022-07-31T11:48:14;32.90;65.90
18339;DHT22;9295;44.484;11.240;2022-07-31T11:50:46;33.10;66.30
18339;DHT22;9295;44.484;11.240;2022-07-31T11:53:15;32.90;66.60
18339;DHT22;9295;44.484;11.240;2022-07-31T11:55:49;32.90;66.80
18339;DHT22;9295;44.484;11.240;2022-07-31T11:58:21;32.90;65.60
18339;DHT22;9295;44.484;11.240;2022-07-31T12:00:54;32.80;65.60
18339;DHT22;9295;44.484;11.240;2022-07-31T12:03:27;32.80;64.60
18339;DHT22;9295;44.484;11.240;2022-07-31T12:05:56;32.70;64.00
18339;DHT22;9295;44.484;11.240;2022-07-31T12:08:26;32.70;64.30
18339;DHT22;9295;44.484;11.240;2022-07-31T12:10:57;32.80;64.80
18339;DHT22;9295;44.484;11.240;2022-07-31T12:13:29;32.90;63.10
18339;DHT22;9295;44.484;11.240;2022-07-31T12:16:00;33.00;63.10
18339;DHT22;9295;44.484;11.240;2022-07-31T12:18:44;33.00;61.20
18339;DHT22;9295;44.484;11.240;2022-07-31T12:21:14;33.00;61.30
18339;DHT22;9295;44.484;11.240;2022-07-31T12:23:45;33.10;60.80
18339;DHT22;9295;44.484;11.240;2022-07-31T12:26:21;33.10;60.00
18339;DHT22;9295;44.484;11.240;2022-07-31T12:29:01;33.20;59.60
18339;DHT22;9295;44.484;11.240;2022-07-31T12:31:43;33.10;59.20
18339;DHT22;9295;44.484;11.240;2022-07-31T12:34:12;33.10;57.90
18339;DHT22;9295;44.484;11.240;2022-07-31T12:36:41;33.20;58.20
18339;DHT22;9295;44.484;11.240;2022-07-31T12:39:10;33.20;58.50
18339;DHT22;9295;44.484;11.240;2022-07-31T12:41:42;33.30;57.80
18339;DHT22;9295;44.484;11.240;2022-07-31T12:44:12;33.20;57.30
18339;DHT22;9295;44.484;11.240;2022-07-31T12:46:47;33.20;57.90
18339;DHT22;9295;44.484;11.240;2022-07-31T12:49:16;33.30;55.90
18339;DHT22;9295;44.484;11.240;2022-07-31T12:51:45;33.30;55.80
18339;DHT22;9295;44.484;11.240;2022-07-31T12:54:15;33.30;55.60
18339;DHT22;9295;44.484;11.240;2022-07-31T12:56:44;33.20;54.30
18339;DHT22;9295;44.484;11.240;2022-07-31T12:59:15;33.20;52.90
18339;DHT22;9295;44.484;11.240;2022-07-31T13:01:44;33.10;51.10
18339;DHT22;9295;44.484;11.240;2022-07-31T13:04:12;33.10;53.00
18339;DHT22;9295;44.484;11.240;2022-07-31T13:06:46;33.10;53.40
18339;DHT22;9295;44.484;11.240;2022-07-31T13:09:18;33.20;53.70
18339;DHT22;9295;44.484;11.240;2022-07-31T13:11:47;33.30;53.40
18339;DHT22;9295;44.484;11.240;2022-07-31T13:14:24;33.40;52.90
18339;DHT22;9295;44.484;11.240;2022-07-31T13:16:56;33.40;52.40
18339;DHT22;9295;44.484;11.240;2022-07-31T13:19:26;33.40;52.50
18339;DHT22;9295;44.484;11.240;2022-07-31T13:21:56;33.50;52.80
18339;DHT22;9295;44.484;11.240;2022-07-31T13:24:25;33.60;53.40
18339;DHT22;9295;44.484;11.240;2022-07-31T13:26:54;33.60;53.30
18339;DHT22;9295;44.484;11.240;2022-07-31T13:29:26;33.50;53.00
18339;DHT22;9295;44.484;11.240;2022-07-31T13:31:57;33.50;53.70
18339;DHT22;9295;44.484;11.240;2022-07-31T13:34:26;33.50;51.90
18339;DHT22;9295;44.484;11.240;2022-07-31T13:36:55;33.30;52.00
18339;DHT22;9295;44.484;11.240;2022-07-31T13:39:24;33.30;52.50
18339;DHT22;9295;44.484;11.240;2022-07-31T13:41:53;33.20;52.50
18339;DHT22;9295;44.484;11.240;2022-07-31T13:44:21;33.20;52.90
18339;DHT22;9295;44.484;11.240;2022-07-31T13:46:53;33.30;53.30
18339;DHT22;9295;44.484;11.240;2022-07-31T13:49:21;33.40;52.70
18339;DHT22;9295;44.484;11.240;2022-07-31T13:51:55;33.50;52.00
18339;DHT22;9295;44.484;11.240;2022-07-31T13:54:24;33.50;52.20
18339;DHT22;9295;44.484;11.240;2022-07-31T13:56:52;33.60;52.60
18339;DHT22;9295;44.484;11.240;2022-07-31T13:59:27;33.60;52.30
18339;DHT22;9295;44.484;11.240;2022-07-31T14:01:57;33.60;52.10
18339;DHT22;9295;44.484;11.240;2022-07-31T14:04:31;33.60;51.80
18339;DHT22;9295;44.484;11.240;2022-07-31T14:07:06;33.50;52.20
18339;DHT22;9295;44.484;11.240;2022-07-31T14:09:39;33.60;51.60
18339;DHT22;9295;44.484;11.240;2022-07-31T14:12:21;33.60;50.70
18339;DHT22;9295;44.484;11.240;2022-07-31T14:14:50;33.50;50.80
18339;DHT22;9295;44.484;11.240;2022-07-31T14:17:20;33.50;50.30
18339;DHT22;9295;44.484;11.240;2022-07-31T14:19:51;33.40;50.50
18339;DHT22;9295;44.484;11.240;2022-07-31T14:22:20;33.40;51.30
18339;DHT22;9295;44.484;11.240;2022-07-31T14:24:49;33.40;51.70
18339;DHT22;9295;44.484;11.240;2022-07-31T14:27:18;33.50;50.50
18339;DHT22;9295;44.484;11.240;2022-07-31T14:29:47;33.50;50.30
18339;DHT22;9295;44.484;11.240;2022-07-31T14:32:16;33.60;51.00
18339;DHT22;9295;44.484;11.240;2022-07-31T14:34:47;33.70;51.20
18339;DHT22;9295;44.484;11.240;2022-07-31T14:37:16;33.70;49.40
18339;DHT22;9295;44.484;11.240;2022-07-31T14:39:44;33.70;49.80
18339;DHT22;9295;44.484;11.240;2022-07-31T14:42:16;33.80;50.10
18339;DHT22;9295;44.484;11.240;2022-07-31T14:44:48;33.80;50.40
18339;DHT22;9295;44.484;11.240;2022-07-31T14:47:17;33.80;50.50
18339;DHT22;9295;44.484;11.240;2022-07-31T14:49:47;33.80;50.40
18339;DHT22;9295;44.484;11.240;2022-07-31T14:52:36;33.70;50.40
18339;DHT22;9295;44.484;11.240;2022-07-31T14:55:05;33.80;49.90
18339;DHT22;9295;44.484;11.240;2022-07-31T14:57:34;33.80;49.20
18339;DHT22;9295;44.484;11.240;2022-07-31T15:00:07;33.80;48.90
18339;DHT22;9295;44.484;11.240;2022-07-31T15:02:40;33.70;48.70
18339;DHT22;9295;44.484;11.240;2022-07-31T15:05:11;33.70;48.70
18339;DHT22;9295;44.484;11.240;2022-07-31T15:08:00;33.80;49.10
18339;DHT22;9295;44.484;11.240;2022-07-31T15:10:30;33.80;49.40
18339;DHT22;9295;44.484;11.240;2022-07-31T15:13:01;33.80;49.50
18339;DHT22;9295;44.484;11.240;2022-07-31T15:15:30;33.80;49.40
18339;DHT22;9295;44.484;11.240;2022-07-31T15:18:00;33.80;49.20
18339;DHT22;9295;44.484;11.240;2022-07-31T15:20:34;33.80;49.20
18339;DHT22;9295;44.484;11.240;2022-07-31T15:23:03;33.80;49.50
18339;DHT22;9295;44.484;11.240;2022-07-31T15:25:32;33.70;50.00
18339;DHT22;9295;44.484;11.240;2022-07-31T15:28:00;33.70;49.80
18339;DHT22;9295;44.484;11.240;2022-07-31T15:30:29;33.60;50.20
18339;DHT22;9295;44.484;11.240;2022-07-31T15:32:58;33.60;50.00
18339;DHT22;9295;44.484;11.240;2022-07-31T15:35:28;33.70;50.00
18339;DHT22;9295;44.484;11.240;2022-07-31T15:37:59;33.80;49.30
18339;DHT22;9295;44.484;11.240;2022-07-31T15:40:29;33.70;49.60
18339;DHT22;9295;44.484;11.240;2022-07-31T15:42:58;33.70;49.90
18339;DHT22;9295;44.484;11.240;2022-07-31T15:45:27;33.70;50.00
18339;DHT22;9295;44.484;11.240;2022-07-31T15:47:55;33.80;50.00
18339;DHT22;9295;44.484;11.240;2022-07-31T15:50:24;33.80;49.80
18339;DHT22;9295;44.484;11.240;2022-07-31T15:52:52;33.80;49.70
18339;DHT22;9295;44.484;11.240;2022-07-31T15:55:22;33.80;49.50
18339;DHT22;9295;44.484;11.240;2022-07-31T15:57:51;33.80;49.70
18339;DHT22;9295;44.484;11.240;2022-07-31T16:00:20;33.80;50.00
18339;DHT22;9295;44.484;11.240;2022-07-31T16:02:49;33.80;49.80
18339;DHT22;9295;44.484;11.240;2022-07-31T16:05:18;33.80;49.70
18339;DHT22;9295;44.484;11.240;2022-07-31T16:08:05;33.80;49.50
18339;DHT22;9295;44.484;11.240;2022-07-31T16:10:56;33.80;48.70
18339;DHT22;9295;44.484;11.240;2022-07-31T16:13:24;33.70;49.00
18339;DHT22;9295;44.484;11.240;2022-07-31T16:15:53;33.70;48.70
18339;DHT22;9295;44.484;11.240;2022-07-31T16:18:24;33.60;48.90